N724DW KSYR-
Flight info
| Callsign | N724DW |
|---|---|
| Flight time | N/A |
| Altitude | VFR/025 |
| Route | |
| Aircraft | C172/L-VGD/C |
Departure
| Time | 2026-04-29 18:45 |
|---|---|
| Airport | Syracuse Hancock International Airport (KSYR) |
Arrival
| Time | N/A |
|---|---|
| Airport | - |
| Time | Latitude | Longitude | Altitude | Speed | Heading |
|---|---|---|---|---|---|
| 2026-04-29 18:40 | 43.10589 | -76.12516 | 423 ft | 0 kts | 345° |
| 2026-04-29 18:42 | 43.10677 | -76.12543 | 424 ft | 17 kts | 357° |
| 2026-04-29 18:43 | 43.10731 | -76.12546 | 420 ft | 0 kts | 358° |
| 2026-04-29 18:44 | 43.10818 | -76.12520 | 423 ft | 30 kts | 55° |
| 2026-04-29 18:44 | 43.10841 | -76.12025 | 414 ft | 76 kts | 86° |
| 2026-04-29 18:45 | 43.10871 | -76.11150 | 425 ft | 104 kts | 87° |
| 2026-04-29 18:45 | 43.10938 | -76.10178 | 653 ft | 102 kts | 82° |
| 2026-04-29 18:45 | 43.11101 | -76.09234 | 871 ft | 103 kts | 69° |
| 2026-04-29 18:45 | 43.11380 | -76.08329 | 1074 ft | 103 kts | 68° |
| 2026-04-29 18:46 | 43.11637 | -76.07486 | 1412 ft | 88 kts | 67° |
| 2026-04-29 18:46 | 43.11869 | -76.06739 | 1664 ft | 86 kts | 67° |
| 2026-04-29 18:46 | 43.12101 | -76.05987 | 1876 ft | 86 kts | 67° |
| 2026-04-29 18:46 | 43.12332 | -76.05237 | 2095 ft | 86 kts | 68° |
| 2026-04-29 18:47 | 43.12564 | -76.04484 | 2360 ft | 86 kts | 67° |
| 2026-04-29 18:47 | 43.12800 | -76.03733 | 2610 ft | 86 kts | 66° |
| 2026-04-29 18:47 | 43.13032 | -76.02976 | 2819 ft | 86 kts | 67° |
| 2026-04-29 18:47 | 43.13267 | -76.02213 | 2996 ft | 90 kts | 67° |
| 2026-04-29 18:48 | 43.13531 | -76.01346 | 3014 ft | 108 kts | 68° |
| 2026-04-29 18:48 | 43.13837 | -76.00338 | 3015 ft | 120 kts | 68° |
| 2026-04-29 18:48 | 43.14164 | -75.99256 | 3011 ft | 126 kts | 68° |
| 2026-04-29 18:48 | 43.14503 | -75.98138 | 3010 ft | 128 kts | 68° |
| 2026-04-29 18:49 | 43.14844 | -75.97005 | 3010 ft | 129 kts | 68° |
| 2026-04-29 18:49 | 43.15190 | -75.95859 | 3007 ft | 130 kts | 68° |
| 2026-04-29 18:49 | 43.15532 | -75.94716 | 3012 ft | 128 kts | 68° |
| 2026-04-29 18:49 | 43.15874 | -75.93579 | 3002 ft | 128 kts | 67° |
| 2026-04-29 18:50 | 43.16212 | -75.92457 | 2996 ft | 126 kts | 68° |
| 2026-04-29 18:50 | 43.16545 | -75.91350 | 2994 ft | 125 kts | 68° |
| 2026-04-29 18:50 | 43.16878 | -75.90246 | 2992 ft | 125 kts | 68° |
| 2026-04-29 18:50 | 43.17211 | -75.89145 | 2991 ft | 125 kts | 68° |
| 2026-04-29 18:51 | 43.17538 | -75.88058 | 2990 ft | 125 kts | 68° |
| 2026-04-29 18:51 | 43.17870 | -75.86960 | 2991 ft | 125 kts | 68° |
| 2026-04-29 18:51 | 43.18183 | -75.85877 | 2993 ft | 120 kts | 66° |
| 2026-04-29 18:51 | 43.18511 | -75.84811 | 2990 ft | 122 kts | 67° |
| 2026-04-29 18:52 | 43.18843 | -75.83731 | 2992 ft | 124 kts | 68° |
| 2026-04-29 18:52 | 43.19174 | -75.82639 | 2993 ft | 124 kts | 68° |
| 2026-04-29 18:52 | 43.19505 | -75.81545 | 2994 ft | 124 kts | 68° |
| 2026-04-29 18:52 | 43.19835 | -75.80451 | 2994 ft | 124 kts | 68° |
| 2026-04-29 18:53 | 43.20166 | -75.79356 | 2995 ft | 124 kts | 68° |
| 2026-04-29 18:53 | 43.20497 | -75.78261 | 2995 ft | 124 kts | 68° |
| 2026-04-29 18:53 | 43.20828 | -75.77167 | 2995 ft | 124 kts | 68° |
| 2026-04-29 18:53 | 43.21097 | -75.76052 | 2969 ft | 125 kts | 92° |
| 2026-04-29 18:54 | 43.20590 | -75.75131 | 2843 ft | 129 kts | 162° |
| 2026-04-29 18:54 | 43.19782 | -75.74778 | 2906 ft | 122 kts | 156° |
| 2026-04-29 18:54 | 43.19017 | -75.74195 | 2850 ft | 125 kts | 152° |
| 2026-04-29 18:54 | 43.18310 | -75.73597 | 2963 ft | 117 kts | 135° |
| 2026-04-29 18:55 | 43.17997 | -75.72580 | 2988 ft | 119 kts | 98° |
| 2026-04-29 18:55 | 43.18090 | -75.71450 | 2993 ft | 121 kts | 79° |
| 2026-04-29 18:55 | 43.18265 | -75.70304 | 3009 ft | 126 kts | 78° |
| 2026-04-29 18:55 | 43.18457 | -75.69132 | 3005 ft | 126 kts | 77° |
| 2026-04-29 18:56 | 43.18658 | -75.67970 | 3007 ft | 125 kts | 77° |
| 2026-04-29 18:56 | 43.18859 | -75.66813 | 3007 ft | 125 kts | 77° |
| 2026-04-29 18:56 | 43.19060 | -75.65653 | 3005 ft | 126 kts | 77° |
| 2026-04-29 18:56 | 43.19263 | -75.64492 | 3002 ft | 125 kts | 77° |
| 2026-04-29 18:57 | 43.19466 | -75.63332 | 3011 ft | 126 kts | 77° |
| 2026-04-29 18:57 | 43.19672 | -75.62157 | 2999 ft | 126 kts | 77° |
| 2026-04-29 18:57 | 43.19871 | -75.60990 | 2999 ft | 125 kts | 77° |
| 2026-04-29 18:57 | 43.20073 | -75.59829 | 2999 ft | 125 kts | 77° |
| 2026-04-29 18:58 | 43.20275 | -75.58671 | 2999 ft | 125 kts | 77° |
| 2026-04-29 18:58 | 43.20477 | -75.57498 | 2997 ft | 127 kts | 77° |
| 2026-04-29 18:58 | 43.20678 | -75.56342 | 2997 ft | 126 kts | 77° |
| 2026-04-29 18:58 | 43.20880 | -75.55180 | 2996 ft | 125 kts | 77° |
| 2026-04-29 18:59 | 43.21082 | -75.54019 | 2996 ft | 126 kts | 77° |
| 2026-04-29 18:59 | 43.21284 | -75.52853 | 2996 ft | 125 kts | 77° |
| 2026-04-29 18:59 | 43.21484 | -75.51692 | 2995 ft | 125 kts | 77° |
| 2026-04-29 18:59 | 43.21685 | -75.50534 | 2939 ft | 127 kts | 77° |
| 2026-04-29 19:00 | 43.21867 | -75.49420 | 2584 ft | 115 kts | 69° |
| 2026-04-29 19:00 | 43.22399 | -75.48672 | 2276 ft | 103 kts | 37° |
| 2026-04-29 19:00 | 43.23039 | -75.48306 | 2352 ft | 91 kts | 2° |
| 2026-04-29 19:00 | 43.23689 | -75.48573 | 2217 ft | 103 kts | 334° |
| 2026-04-29 19:01 | 43.24307 | -75.48820 | 2201 ft | 102 kts | 3° |
| 2026-04-29 19:01 | 43.24891 | -75.48317 | 2185 ft | 105 kts | 72° |
| 2026-04-29 19:01 | 43.25335 | -75.47428 | 1981 ft | 114 kts | 45° |
| 2026-04-29 19:01 | 43.25490 | -75.46517 | 1716 ft | 130 kts | 129° |
| 2026-04-29 19:02 | 43.25453 | -75.45462 | 1630 ft | 56 kts | 63° |
| 2026-04-29 19:02 | 43.25515 | -75.45199 | 1455 ft | 74 kts | 103° |
| 2026-04-29 19:02 | 43.25364 | -75.44284 | 1214 ft | 70 kts | 101° |